Fresnal Canyon, Arizona
Current Conditions -  °F | °C
As of 1:45 PM on Monday 22 Dec 2014 (Local Time) from KRYN Reporting Station
Clear Clear  
Wind Chill: 64°   Ceiling: Unl
Heat Index: 64°   Visibility: 10mi
Dew Point: 43°   Wind: 5mph
Humidity: 45%   Direction: 290°WNW
Pressure: 29.97"   Gusts: NA
Location:  32.0925°N, 112.129°W
Report Text: KRYN 222045Z 29004KT 10SM CLR 18/06 A2997
Loading
Personal Weather Stations






























Interactive Weather Map New forecast layout! Learn more

10-Day Weather Forecast

Advertisements
Track Severe Weather on mobile